sensor_id;sensor_type;location;lat;lon;timestamp;pressure;altitude;pressure_sealevel;temperature;humidity
9261;BME280;4667;42.726;23.252;2022-12-07T05:18:53;95153.00;;;5.64;nan
9261;BME280;4667;42.726;23.252;2022-12-07T05:28:43;95146.06;;;5.63;nan
9261;BME280;4667;42.726;23.252;2022-12-07T05:48:53;95137.41;;;5.93;nan
9261;BME280;4667;42.726;23.252;2022-12-07T06:09:06;95135.63;;;5.81;nan
9261;BME280;4667;42.726;23.252;2022-12-07T06:26:50;95135.22;;;6.02;nan
9261;BME280;4667;42.726;23.252;2022-12-07T06:29:18;95146.22;;;6.16;nan
9261;BME280;4667;42.726;23.252;2022-12-07T06:39:24;95159.53;;;5.86;nan
9261;BME280;4667;42.726;23.252;2022-12-07T06:49:18;95171.88;;;6.10;nan
9261;BME280;4667;42.726;23.252;2022-12-07T06:51:45;95170.72;;;5.88;nan
9261;BME280;4667;42.726;23.252;2022-12-07T06:54:15;95176.44;;;5.87;nan
9261;BME280;4667;42.726;23.252;2022-12-07T06:59:14;95169.53;;;6.08;nan
9261;BME280;4667;42.726;23.252;2022-12-07T07:06:42;95166.75;;;6.01;nan
9261;BME280;4667;42.726;23.252;2022-12-07T07:09:10;95167.41;;;5.95;nan
9261;BME280;4667;42.726;23.252;2022-12-07T07:21:30;95166.19;;;6.15;nan
9261;BME280;4667;42.726;23.252;2022-12-07T07:23:58;95162.06;;;6.21;nan
9261;BME280;4667;42.726;23.252;2022-12-07T07:28:57;95159.47;;;6.28;nan
9261;BME280;4667;42.726;23.252;2022-12-07T07:31:24;95163.47;;;6.38;nan
9261;BME280;4667;42.726;23.252;2022-12-07T07:33:53;95167.50;;;6.51;nan
9261;BME280;4667;42.726;23.252;2022-12-07T07:36:22;95165.56;;;6.48;nan
9261;BME280;4667;42.726;23.252;2022-12-07T07:41:17;95166.22;;;6.41;nan
9261;BME280;4667;42.726;23.252;2022-12-07T07:43:44;95171.06;;;6.32;nan
9261;BME280;4667;42.726;23.252;2022-12-07T07:46:14;95169.06;;;6.52;nan
9261;BME280;4667;42.726;23.252;2022-12-07T07:48:43;95158.09;;;6.90;nan
9261;BME280;4667;42.726;23.252;2022-12-07T07:51:11;95157.00;;;6.95;nan
9261;BME280;4667;42.726;23.252;2022-12-07T08:01:03;95155.16;;;7.69;nan
9261;BME280;4667;42.726;23.252;2022-12-07T08:03:33;95161.94;;;7.19;nan
9261;BME280;4667;42.726;23.252;2022-12-07T08:08:28;95157.41;;;7.64;nan
9261;BME280;4667;42.726;23.252;2022-12-07T08:10:57;95158.63;;;7.70;nan
9261;BME280;4667;42.726;23.252;2022-12-07T08:13:32;95156.72;;;7.70;nan
9261;BME280;4667;42.726;23.252;2022-12-07T08:16:04;95158.34;;;7.78;nan
9261;BME280;4667;42.726;23.252;2022-12-07T08:18:38;95155.66;;;7.78;nan
9261;BME280;4667;42.726;23.252;2022-12-07T08:21:11;95161.81;;;7.79;nan
9261;BME280;4667;42.726;23.252;2022-12-07T08:23:42;95159.69;;;7.99;nan
9261;BME280;4667;42.726;23.252;2022-12-07T08:26:15;95157.91;;;8.17;nan
9261;BME280;4667;42.726;23.252;2022-12-07T08:28:43;95163.13;;;8.33;nan
9261;BME280;4667;42.726;23.252;2022-12-07T08:31:15;95156.13;;;8.28;nan
9261;BME280;4667;42.726;23.252;2022-12-07T08:33:47;95152.22;;;8.26;nan
9261;BME280;4667;42.726;23.252;2022-12-07T08:36:17;95156.22;;;8.39;nan
9261;BME280;4667;42.726;23.252;2022-12-07T08:38:48;95147.84;;;8.51;nan
9261;BME280;4667;42.726;23.252;2022-12-07T08:41:17;95152.16;;;8.66;nan
9261;BME280;4667;42.726;23.252;2022-12-07T08:43:44;95135.59;;;8.71;nan
9261;BME280;4667;42.726;23.252;2022-12-07T08:46:15;95142.34;;;9.02;nan
9261;BME280;4667;42.726;23.252;2022-12-07T08:48:50;95132.06;;;9.29;nan
9261;BME280;4667;42.726;23.252;2022-12-07T08:51:19;95125.53;;;9.40;nan
9261;BME280;4667;42.726;23.252;2022-12-07T08:53:49;95129.78;;;9.49;nan
9261;BME280;4667;42.726;23.252;2022-12-07T08:56:25;95123.25;;;9.53;nan
9261;BME280;4667;42.726;23.252;2022-12-07T08:58:57;95125.78;;;9.07;nan
9261;BME280;4667;42.726;23.252;2022-12-07T09:01:24;95120.47;;;9.32;nan
9261;BME280;4667;42.726;23.252;2022-12-07T09:03:56;95112.72;;;9.27;nan
9261;BME280;4667;42.726;23.252;2022-12-07T09:06:25;95116.66;;;9.40;nan
9261;BME280;4667;42.726;23.252;2022-12-07T09:08:55;95105.88;;;9.58;nan
9261;BME280;4667;42.726;23.252;2022-12-07T09:11:23;95096.28;;;9.81;nan
9261;BME280;4667;42.726;23.252;2022-12-07T09:13:55;95103.25;;;10.04;nan
9261;BME280;4667;42.726;23.252;2022-12-07T09:16:25;95104.44;;;10.17;nan
9261;BME280;4667;42.726;23.252;2022-12-07T09:21:21;95102.47;;;10.53;nan
9261;BME280;4667;42.726;23.252;2022-12-07T09:31:10;95090.41;;;10.86;nan
9261;BME280;4667;42.726;23.252;2022-12-07T09:33:38;95081.81;;;11.12;nan
9261;BME280;4667;42.726;23.252;2022-12-07T09:36:07;95081.00;;;11.15;nan
9261;BME280;4667;42.726;23.252;2022-12-07T09:38:37;95074.09;;;11.07;nan
9261;BME280;4667;42.726;23.252;2022-12-07T09:41:06;95081.84;;;11.01;nan
9261;BME280;4667;42.726;23.252;2022-12-07T09:43:35;95081.84;;;11.01;nan
9261;BME280;4667;42.726;23.252;2022-12-07T09:46:03;95074.03;;;11.25;nan
9261;BME280;4667;42.726;23.252;2022-12-07T09:48:35;95075.72;;;10.73;nan
9261;BME280;4667;42.726;23.252;2022-12-07T09:51:14;95068.72;;;10.93;nan
9261;BME280;4667;42.726;23.252;2022-12-07T09:53:43;95062.50;;;10.99;nan
9261;BME280;4667;42.726;23.252;2022-12-07T09:56:13;95063.25;;;11.03;nan
9261;BME280;4667;42.726;23.252;2022-12-07T09:58:43;95064.38;;;11.10;nan
9261;BME280;4667;42.726;23.252;2022-12-07T10:01:14;95059.94;;;11.44;nan
9261;BME280;4667;42.726;23.252;2022-12-07T10:03:49;95060.59;;;11.69;nan
9261;BME280;4667;42.726;23.252;2022-12-07T10:06:17;95053.78;;;12.47;nan
9261;BME280;4667;42.726;23.252;2022-12-07T10:08:49;95048.84;;;12.38;nan
9261;BME280;4667;42.726;23.252;2022-12-07T10:11:18;95040.03;;;12.23;nan
9261;BME280;4667;42.726;23.252;2022-12-07T10:13:50;95043.06;;;12.33;nan
9261;BME280;4667;42.726;23.252;2022-12-07T10:16:38;95032.88;;;13.12;nan
9261;BME280;4667;42.726;23.252;2022-12-07T10:19:28;95026.00;;;13.37;nan
9261;BME280;4667;42.726;23.252;2022-12-07T10:22:09;95012.78;;;13.36;nan
9261;BME280;4667;42.726;23.252;2022-12-07T10:25:08;95010.34;;;13.45;nan
9261;BME280;4667;42.726;23.252;2022-12-07T10:27:36;95017.38;;;12.78;nan
9261;BME280;4667;42.726;23.252;2022-12-07T10:30:12;95012.19;;;12.57;nan
9261;BME280;4667;42.726;23.252;2022-12-07T10:32:43;95009.16;;;12.07;nan
9261;BME280;4667;42.726;23.252;2022-12-07T10:35:25;95007.91;;;12.56;nan
9261;BME280;4667;42.726;23.252;2022-12-07T10:38:16;95004.56;;;12.79;nan
9261;BME280;4667;42.726;23.252;2022-12-07T10:40:45;95013.88;;;12.44;nan
9261;BME280;4667;42.726;23.252;2022-12-07T10:43:18;95003.06;;;12.74;nan
9261;BME280;4667;42.726;23.252;2022-12-07T10:46:29;94993.16;;;12.57;nan
9261;BME280;4667;42.726;23.252;2022-12-07T10:52:39;94987.34;;;13.49;nan
9261;BME280;4667;42.726;23.252;2022-12-07T10:55:29;94983.84;;;13.22;nan
9261;BME280;4667;42.726;23.252;2022-12-07T10:58:37;94971.88;;;12.86;nan
9261;BME280;4667;42.726;23.252;2022-12-07T11:01:25;94964.34;;;13.77;nan
9261;BME280;4667;42.726;23.252;2022-12-07T11:04:24;94961.31;;;14.65;nan
9261;BME280;4667;42.726;23.252;2022-12-07T11:07:00;94962.16;;;15.18;nan
9261;BME280;4667;42.726;23.252;2022-12-07T11:09:50;94962.28;;;15.30;nan
9261;BME280;4667;42.726;23.252;2022-12-07T11:12:28;94957.50;;;15.54;nan
9261;BME280;4667;42.726;23.252;2022-12-07T11:15:08;94951.78;;;15.29;nan
9261;BME280;4667;42.726;23.252;2022-12-07T11:17:44;94947.47;;;15.47;nan
9261;BME280;4667;42.726;23.252;2022-12-07T11:20:55;94933.13;;;15.43;nan
9261;BME280;4667;42.726;23.252;2022-12-07T11:23:36;94930.75;;;15.45;nan
9261;BME280;4667;42.726;23.252;2022-12-07T11:26:12;94927.59;;;15.79;nan
9261;BME280;4667;42.726;23.252;2022-12-07T11:28:59;94930.84;;;16.07;nan
9261;BME280;4667;42.726;23.252;2022-12-07T11:31:53;94921.28;;;16.44;nan
9261;BME280;4667;42.726;23.252;2022-12-07T11:36:56;94931.31;;;16.63;nan
9261;BME280;4667;42.726;23.252;2022-12-07T11:39:28;94935.69;;;16.89;nan
9261;BME280;4667;42.726;23.252;2022-12-07T11:42:01;94934.56;;;16.74;nan
9261;BME280;4667;42.726;23.252;2022-12-07T11:52:43;94910.34;;;17.39;nan
9261;BME280;4667;42.726;23.252;2022-12-07T11:55:19;94909.88;;;17.53;nan
9261;BME280;4667;42.726;23.252;2022-12-07T11:57:53;94901.44;;;17.86;nan
9261;BME280;4667;42.726;23.252;2022-12-07T12:02:59;94894.56;;;17.56;nan
9261;BME280;4667;42.726;23.252;2022-12-07T12:10:58;94893.63;;;16.70;nan
9261;BME280;4667;42.726;23.252;2022-12-07T12:13:43;94904.66;;;16.67;nan
9261;BME280;4667;42.726;23.252;2022-12-07T12:16:44;94895.16;;;16.43;nan
9261;BME280;4667;42.726;23.252;2022-12-07T12:19:35;94874.53;;;17.08;nan
9261;BME280;4667;42.726;23.252;2022-12-07T12:22:14;94872.13;;;17.61;nan
9261;BME280;4667;42.726;23.252;2022-12-07T12:24:49;94876.16;;;17.44;nan
9261;BME280;4667;42.726;23.252;2022-12-07T12:27:23;94875.06;;;17.03;nan
9261;BME280;4667;42.726;23.252;2022-12-07T12:29:54;94875.47;;;16.77;nan
9261;BME280;4667;42.726;23.252;2022-12-07T12:32:31;94865.22;;;17.06;nan
9261;BME280;4667;42.726;23.252;2022-12-07T12:35:22;94851.50;;;16.81;nan
9261;BME280;4667;42.726;23.252;2022-12-07T12:37:52;94842.75;;;17.36;nan
9261;BME280;4667;42.726;23.252;2022-12-07T12:40:43;94849.00;;;17.62;nan
9261;BME280;4667;42.726;23.252;2022-12-07T12:46:38;94852.09;;;17.99;nan
9261;BME280;4667;42.726;23.252;2022-12-07T12:49:32;94839.66;;;18.07;nan
9261;BME280;4667;42.726;23.252;2022-12-07T12:58:40;94841.19;;;18.64;nan
9261;BME280;4667;42.726;23.252;2022-12-07T13:01:39;94844.63;;;18.55;nan
9261;BME280;4667;42.726;23.252;2022-12-07T13:04:38;94843.91;;;18.20;nan
9261;BME280;4667;42.726;23.252;2022-12-07T13:07:13;94848.13;;;18.00;nan
9261;BME280;4667;42.726;23.252;2022-12-07T13:12:56;94849.00;;;17.24;nan
9261;BME280;4667;42.726;23.252;2022-12-07T13:20:53;94849.44;;;16.43;nan
9261;BME280;4667;42.726;23.252;2022-12-07T13:46:47;94835.56;;;14.43;nan
9261;BME280;4667;42.726;23.252;2022-12-07T13:49:20;94838.34;;;14.20;nan
9261;BME280;4667;42.726;23.252;2022-12-07T14:11:52;94837.50;;;13.14;nan
9261;BME280;4667;42.726;23.252;2022-12-07T14:14:22;94841.28;;;13.20;nan
9261;BME280;4667;42.726;23.252;2022-12-07T14:16:57;94836.31;;;13.15;nan
9261;BME280;4667;42.726;23.252;2022-12-07T14:19:54;94839.31;;;12.93;nan
9261;BME280;4667;42.726;23.252;2022-12-07T14:22:31;94840.34;;;12.76;nan
9261;BME280;4667;42.726;23.252;2022-12-07T14:25:16;94838.56;;;12.66;nan
9261;BME280;4667;42.726;23.252;2022-12-07T14:28:04;94842.84;;;12.63;nan
9261;BME280;4667;42.726;23.252;2022-12-07T14:30:33;94844.16;;;12.52;nan
9261;BME280;4667;42.726;23.252;2022-12-07T14:33:03;94847.81;;;12.42;nan
9261;BME280;4667;42.726;23.252;2022-12-07T14:35:33;94848.34;;;12.30;nan
9261;BME280;4667;42.726;23.252;2022-12-07T14:38:00;94849.16;;;12.26;nan
9261;BME280;4667;42.726;23.252;2022-12-07T14:40:35;94842.97;;;12.22;nan
9261;BME280;4667;42.726;23.252;2022-12-07T14:43:05;94854.22;;;12.24;nan
9261;BME280;4667;42.726;23.252;2022-12-07T14:45:40;94850.09;;;12.13;nan
9261;BME280;4667;42.726;23.252;2022-12-07T14:48:15;94863.53;;;11.90;nan
9261;BME280;4667;42.726;23.252;2022-12-07T14:50:45;94844.91;;;11.92;nan
9261;BME280;4667;42.726;23.252;2022-12-07T14:53:18;94857.66;;;11.54;nan
9261;BME280;4667;42.726;23.252;2022-12-07T14:55:55;94857.47;;;11.27;nan
9261;BME280;4667;42.726;23.252;2022-12-07T15:00:53;94854.75;;;11.30;nan
9261;BME280;4667;42.726;23.252;2022-12-07T15:05:47;94864.31;;;10.94;nan
9261;BME280;4667;42.726;23.252;2022-12-07T15:13:15;94871.16;;;10.47;nan
9261;BME280;4667;42.726;23.252;2022-12-07T15:15:59;94880.84;;;10.44;nan
9261;BME280;4667;42.726;23.252;2022-12-07T15:25:47;94872.75;;;10.37;nan
9261;BME280;4667;42.726;23.252;2022-12-07T15:28:16;94871.59;;;10.31;nan
9261;BME280;4667;42.726;23.252;2022-12-07T15:30:44;94880.25;;;9.80;nan
9261;BME280;4667;42.726;23.252;2022-12-07T15:33:12;94872.44;;;10.10;nan
9261;BME280;4667;42.726;23.252;2022-12-07T15:35:41;94873.63;;;9.95;nan
9261;BME280;4667;42.726;23.252;2022-12-07T15:38:09;94871.75;;;9.81;nan
9261;BME280;4667;42.726;23.252;2022-12-07T15:40:36;94882.59;;;9.81;nan
9261;BME280;4667;42.726;23.252;2022-12-07T15:43:04;94887.19;;;9.84;nan
9261;BME280;4667;42.726;23.252;2022-12-07T15:45:52;94886.44;;;9.88;nan
9261;BME280;4667;42.726;23.252;2022-12-07T15:48:18;94894.16;;;9.86;nan
9261;BME280;4667;42.726;23.252;2022-12-07T15:50:45;94882.97;;;9.80;nan
9261;BME280;4667;42.726;23.252;2022-12-07T15:53:12;94884.09;;;9.86;nan
9261;BME280;4667;42.726;23.252;2022-12-07T15:55:39;94891.47;;;9.82;nan
9261;BME280;4667;42.726;23.252;2022-12-07T15:58:06;94890.72;;;9.67;nan
9261;BME280;4667;42.726;23.252;2022-12-07T16:00:34;94888.00;;;9.60;nan
9261;BME280;4667;42.726;23.252;2022-12-07T16:03:03;94886.47;;;9.70;nan
9261;BME280;4667;42.726;23.252;2022-12-07T16:05:34;94893.81;;;9.62;nan
9261;BME280;4667;42.726;23.252;2022-12-07T16:08:03;94890.34;;;9.55;nan
9261;BME280;4667;42.726;23.252;2022-12-07T16:10:30;94891.50;;;9.64;nan
9261;BME280;4667;42.726;23.252;2022-12-07T16:13:01;94889.19;;;9.63;nan
9261;BME280;4667;42.726;23.252;2022-12-07T16:15:28;94897.66;;;9.54;nan
9261;BME280;4667;42.726;23.252;2022-12-07T16:18:11;94896.94;;;9.29;nan
9261;BME280;4667;42.726;23.252;2022-12-07T16:20:39;94902.72;;;9.45;nan
9261;BME280;4667;42.726;23.252;2022-12-07T16:23:20;94898.09;;;9.28;nan
9261;BME280;4667;42.726;23.252;2022-12-07T16:26:08;94910.03;;;9.16;nan
9261;BME280;4667;42.726;23.252;2022-12-07T16:28:37;94909.25;;;9.05;nan
9261;BME280;4667;42.726;23.252;2022-12-07T16:31:19;94914.66;;;9.09;nan
9261;BME280;4667;42.726;23.252;2022-12-07T16:33:49;94916.53;;;8.80;nan
9261;BME280;4667;42.726;23.252;2022-12-07T16:36:31;94918.88;;;8.92;nan
9261;BME280;4667;42.726;23.252;2022-12-07T16:39:04;94919.66;;;8.85;nan
9261;BME280;4667;42.726;23.252;2022-12-07T16:41:40;94920.00;;;8.77;nan
9261;BME280;4667;42.726;23.252;2022-12-07T16:44:21;94921.53;;;8.67;nan
9261;BME280;4667;42.726;23.252;2022-12-07T16:46:49;94920.25;;;8.36;nan
9261;BME280;4667;42.726;23.252;2022-12-07T16:49:21;94923.78;;;8.58;nan
9261;BME280;4667;42.726;23.252;2022-12-07T16:51:50;94929.97;;;8.58;nan
9261;BME280;4667;42.726;23.252;2022-12-07T16:54:32;94920.78;;;8.77;nan
9261;BME280;4667;42.726;23.252;2022-12-07T16:56:59;94930.75;;;8.52;nan
9261;BME280;4667;42.726;23.252;2022-12-07T16:59:26;94932.66;;;8.58;nan
9261;BME280;4667;42.726;23.252;2022-12-07T17:01:53;94930.38;;;8.64;nan
9261;BME280;4667;42.726;23.252;2022-12-07T17:04:22;94918.81;;;8.67;nan
9261;BME280;4667;42.726;23.252;2022-12-07T17:06:50;94918.41;;;8.51;nan
9261;BME280;4667;42.726;23.252;2022-12-07T17:09:17;94917.66;;;8.61;nan
9261;BME280;4667;42.726;23.252;2022-12-07T17:11:45;94926.91;;;8.60;nan
9261;BME280;4667;42.726;23.252;2022-12-07T17:14:15;94909.16;;;8.59;nan
9261;BME280;4667;42.726;23.252;2022-12-07T17:17:04;94916.47;;;8.55;nan
9261;BME280;4667;42.726;23.252;2022-12-07T17:19:58;94926.50;;;8.54;nan
9261;BME280;4667;42.726;23.252;2022-12-07T17:22:27;94925.25;;;8.34;nan
9261;BME280;4667;42.726;23.252;2022-12-07T17:24:54;94920.31;;;8.50;nan
9261;BME280;4667;42.726;23.252;2022-12-07T17:27:25;94937.63;;;8.39;nan
9261;BME280;4667;42.726;23.252;2022-12-07T17:29:54;94940.38;;;8.46;nan
9261;BME280;4667;42.726;23.252;2022-12-07T17:32:28;94947.03;;;8.04;nan
9261;BME280;4667;42.726;23.252;2022-12-07T17:34:58;94931.75;;;8.26;nan
9261;BME280;4667;42.726;23.252;2022-12-07T17:37:30;94944.13;;;8.31;nan
9261;BME280;4667;42.726;23.252;2022-12-07T17:39:57;94932.97;;;8.36;nan
9261;BME280;4667;42.726;23.252;2022-12-07T17:42:26;94948.44;;;7.77;nan
9261;BME280;4667;42.726;23.252;2022-12-07T17:45:06;94942.03;;;8.03;nan
9261;BME280;4667;42.726;23.252;2022-12-07T17:47:35;94926.25;;;8.05;nan
9261;BME280;4667;42.726;23.252;2022-12-07T17:50:05;94942.63;;;7.75;nan
9261;BME280;4667;42.726;23.252;2022-12-07T17:52:33;94955.94;;;7.50;nan
9261;BME280;4667;42.726;23.252;2022-12-07T17:55:17;94947.28;;;7.78;nan
9261;BME280;4667;42.726;23.252;2022-12-07T17:57:44;94949.06;;;7.56;nan
9261;BME280;4667;42.726;23.252;2022-12-07T18:00:12;94947.66;;;7.76;nan
9261;BME280;4667;42.726;23.252;2022-12-07T18:02:40;94952.47;;;7.50;nan
9261;BME280;4667;42.726;23.252;2022-12-07T18:05:10;94958.00;;;7.67;nan
9261;BME280;4667;42.726;23.252;2022-12-07T18:07:38;94954.97;;;7.76;nan
9261;BME280;4667;42.726;23.252;2022-12-07T18:10:06;94955.38;;;7.78;nan
9261;BME280;4667;42.726;23.252;2022-12-07T18:12:33;94960.69;;;7.67;nan
9261;BME280;4667;42.726;23.252;2022-12-07T18:15:00;94966.09;;;7.67;nan
9261;BME280;4667;42.726;23.252;2022-12-07T18:17:28;94964.16;;;7.68;nan
9261;BME280;4667;42.726;23.252;2022-12-07T18:19:55;94968.78;;;7.67;nan
9261;BME280;4667;42.726;23.252;2022-12-07T18:22:24;94968.78;;;7.71;nan
9261;BME280;4667;42.726;23.252;2022-12-07T18:24:52;94973.75;;;7.62;nan
9261;BME280;4667;42.726;23.252;2022-12-07T18:27:19;94968.34;;;7.62;nan
9261;BME280;4667;42.726;23.252;2022-12-07T18:29:46;94979.91;;;7.62;nan
9261;BME280;4667;42.726;23.252;2022-12-07T18:32:14;94974.88;;;7.61;nan
9261;BME280;4667;42.726;23.252;2022-12-07T18:34:41;94989.41;;;7.49;nan
9261;BME280;4667;42.726;23.252;2022-12-07T18:37:08;94986.69;;;7.46;nan
9261;BME280;4667;42.726;23.252;2022-12-07T18:39:36;94990.56;;;7.48;nan
9261;BME280;4667;42.726;23.252;2022-12-07T18:42:06;94983.22;;;7.45;nan
9261;BME280;4667;42.726;23.252;2022-12-07T18:44:33;94992.41;;;7.41;nan
9261;BME280;4667;42.726;23.252;2022-12-07T18:47:00;94995.63;;;7.13;nan
9261;BME280;4667;42.726;23.252;2022-12-07T18:49:27;94991.91;;;7.28;nan
9261;BME280;4667;42.726;23.252;2022-12-07T18:51:54;94989.81;;;7.07;nan
9261;BME280;4667;42.726;23.252;2022-12-07T18:54:21;94998.59;;;7.04;nan
9261;BME280;4667;42.726;23.252;2022-12-07T18:56:49;94999.31;;;6.97;nan
9261;BME280;4667;42.726;23.252;2022-12-07T18:59:16;94993.97;;;7.01;nan
9261;BME280;4667;42.726;23.252;2022-12-07T19:02:00;94988.44;;;6.87;nan
9261;BME280;4667;42.726;23.252;2022-12-07T19:04:27;95001.44;;;6.81;nan
9261;BME280;4667;42.726;23.252;2022-12-07T19:06:54;94998.16;;;6.98;nan
9261;BME280;4667;42.726;23.252;2022-12-07T19:09:21;95005.34;;;6.87;nan
9261;BME280;4667;42.726;23.252;2022-12-07T19:11:51;95002.22;;;6.82;nan
9261;BME280;4667;42.726;23.252;2022-12-07T19:14:23;95005.41;;;6.91;nan
9261;BME280;4667;42.726;23.252;2022-12-07T19:16:51;95010.81;;;6.94;nan
9261;BME280;4667;42.726;23.252;2022-12-07T19:19:20;95007.16;;;6.76;nan
9261;BME280;4667;42.726;23.252;2022-12-07T19:21:54;95010.06;;;6.94;nan
9261;BME280;4667;42.726;23.252;2022-12-07T19:24:21;95006.25;;;6.98;nan
9261;BME280;4667;42.726;23.252;2022-12-07T19:26:50;94997.81;;;7.00;nan
9261;BME280;4667;42.726;23.252;2022-12-07T19:31:46;94999.28;;;6.94;nan
9261;BME280;4667;42.726;23.252;2022-12-07T19:34:14;95011.59;;;6.95;nan
9261;BME280;4667;42.726;23.252;2022-12-07T19:36:41;95014.19;;;6.84;nan
9261;BME280;4667;42.726;23.252;2022-12-07T19:39:08;95005.53;;;7.02;nan
9261;BME280;4667;42.726;23.252;2022-12-07T19:41:36;95008.31;;;7.12;nan
9261;BME280;4667;42.726;23.252;2022-12-07T19:44:08;95011.59;;;6.95;nan
9261;BME280;4667;42.726;23.252;2022-12-07T19:46:35;95013.19;;;7.00;nan
9261;BME280;4667;42.726;23.252;2022-12-07T20:36:05;95036.16;;;6.90;nan
9261;BME280;4667;42.726;23.252;2022-12-07T21:51:59;95041.75;;;5.92;nan
9261;BME280;4667;42.726;23.252;2022-12-07T22:06:42;95044.44;;;5.92;nan
9261;BME280;4667;42.726;23.252;2022-12-07T22:58:42;95015.75;;;6.26;nan
9261;BME280;4667;42.726;23.252;2022-12-07T23:08:32;95013.50;;;5.79;nan
9261;BME280;4667;42.726;23.252;2022-12-07T23:20:55;95023.78;;;6.22;nan
